Time;durP1;ratioP1;P1;durP2;ratioP2;P2;SDS_P1;SDS_P2;PMS_P1;PMS_P2;Temp;Humidity;BMP_temperature;BMP_pressure;BME280_temperature;BME280_humidity;BME280_pressure;Samples;Min_cycle;Max_cycle;Signal;HPM_P1;HPM_P2
2023/03/15 00:01:13;;;;;;;11.20;5.77;;;;;;;42.02;35.93;100768.78;6153737;23;20547;-79
2023/03/15 00:03:40;;;;;;;17.43;7.10;;;;;;;41.94;36.31;100763.44;6155657;23;20400;-79
2023/03/15 00:06:06;;;;;;;16.83;8.60;;;;;;;42.00;36.54;100767.56;6153636;23;20428;-78
2023/03/15 00:08:32;;;;;;;15.63;6.50;;;;;;;41.79;36.46;100749.31;6153400;23;20449;-78
2023/03/15 00:10:59;;;;;;;17.20;7.67;;;;;;;41.93;36.31;100738.13;6154785;23;20448;-78
2023/03/15 00:13:25;;;;;;;14.10;7.00;;;;;;;42.08;35.90;100739.41;6153489;23;20389;-78
2023/03/15 00:15:55;;;;;;;17.97;7.67;;;;;;;42.11;35.96;100738.72;6153663;23;20399;-78
2023/03/15 00:18:20;;;;;;;17.00;7.07;;;;;;;41.85;36.22;100736.28;6153524;23;20405;-78
2023/03/15 00:20:47;;;;;;;15.10;7.10;;;;;;;42.15;35.77;100736.91;6153429;23;20733;-78
2023/03/15 00:23:14;;;;;;;18.20;6.70;;;;;;;42.14;36.06;100736.13;6153461;23;20389;-77
2023/03/15 00:25:44;;;;;;;17.13;9.93;;;;;;;41.93;36.54;100737.31;6153635;23;20385;-78
2023/03/15 00:28:10;;;;;;;23.23;6.93;;;;;;;41.87;35.89;100731.31;6153265;23;20384;-78
2023/03/15 00:30:36;;;;;;;13.30;7.83;;;;;;;41.98;36.32;100723.47;6153382;23;20425;-79
2023/03/15 00:33:04;;;;;;;18.77;7.70;;;;;;;41.97;35.74;100722.69;6153487;23;20439;-78
2023/03/15 00:35:34;;;;;;;16.93;8.00;;;;;;;41.94;36.01;100725.31;6153012;23;20381;-79
2023/03/15 00:38:00;;;;;;;18.90;7.53;;;;;;;41.79;36.58;100724.00;6153466;23;20381;-78
2023/03/15 00:40:26;;;;;;;22.50;8.37;;;;;;;41.45;37.05;100714.22;6153105;23;20376;-78
2023/03/15 00:42:52;;;;;;;17.23;8.93;;;;;;;41.67;37.35;100724.72;6153437;23;20381;-78
2023/03/15 00:45:20;;;;;;;29.67;9.70;;;;;;;41.42;37.20;100717.59;6153282;23;20873;-77
2023/03/15 00:47:50;;;;;;;15.93;7.57;;;;;;;41.65;36.61;100718.03;6153313;23;20161;-78
2023/03/15 00:50:16;;;;;;;21.80;8.27;;;;;;;41.53;37.11;100713.34;6153126;23;20733;-78
2023/03/15 00:52:42;;;;;;;15.50;7.23;;;;;;;41.64;37.20;100719.16;6153053;23;20726;-79
2023/03/15 00:55:13;;;;;;;18.03;8.37;;;;;;;41.64;36.90;100702.84;6153264;23;20811;-79
2023/03/15 00:57:41;;;;;;;14.50;9.77;;;;;;;41.52;37.17;100717.19;6153285;23;20461;-77
2023/03/15 01:00:11;;;;;;;14.63;6.43;;;;;;;41.74;37.06;100710.56;6153329;23;20388;-79
2023/03/15 01:02:37;;;;;;;20.00;7.40;;;;;;;41.77;37.38;100712.66;6153273;23;20731;-82
2023/03/15 01:05:07;;;;;;;14.47;6.13;;;;;;;41.92;36.81;100706.53;6155200;23;20761;-82
2023/03/15 01:07:33;;;;;;;19.50;7.93;;;;;;;41.99;36.33;100695.09;6153101;23;20409;-82
2023/03/15 01:10:01;;;;;;;19.47;8.57;;;;;;;42.11;36.41;100689.66;6152928;23;20961;-77
2023/03/15 01:12:34;;;;;;;21.13;7.83;;;;;;;42.14;36.28;100673.44;6153056;23;20405;-78
2023/03/15 01:15:01;;;;;;;20.10;8.03;;;;;;;41.97;35.88;100678.28;6153272;23;20475;-78
2023/03/15 01:17:27;;;;;;;17.40;7.53;;;;;;;41.73;35.99;100677.06;6153273;23;20392;-78
2023/03/15 01:19:53;;;;;;;19.50;7.00;;;;;;;41.72;36.87;100674.69;6153348;23;20418;-78
2023/03/15 01:22:19;;;;;;;23.33;8.67;;;;;;;41.84;37.22;100685.66;6155786;23;20384;-77
2023/03/15 01:24:45;;;;;;;20.57;7.97;;;;;;;41.68;36.89;100668.31;6155236;23;20777;-78
2023/03/15 01:27:11;;;;;;;21.97;7.90;;;;;;;41.79;36.59;100675.75;6154941;23;20389;-77
2023/03/15 01:29:37;;;;;;;23.30;9.17;;;;;;;41.62;37.10;100662.31;6155194;23;20525;-79
2023/03/15 01:32:04;;;;;;;21.67;7.23;;;;;;;41.77;36.26;100661.69;6155066;23;20925;-78
2023/03/15 01:34:30;;;;;;;18.20;8.43;;;;;;;41.77;36.52;100661.69;6155004;23;20244;-77
2023/03/15 01:36:56;;;;;;;18.77;8.43;;;;;;;41.60;36.32;100667.28;6130867;23;20396;-78
2023/03/15 01:39:22;;;;;;;11.67;6.30;;;;;;;41.68;36.22;100641.09;6155085;23;20153;-77
2023/03/15 01:41:48;;;;;;;19.20;8.83;;;;;;;41.73;36.58;100647.13;6154946;23;20150;-78
2023/03/15 01:44:16;;;;;;;19.63;8.73;;;;;;;41.63;36.50;100654.94;6155159;23;20412;-78
2023/03/15 01:46:42;;;;;;;17.57;7.80;;;;;;;41.30;36.38;100651.06;6154839;23;20387;-78
2023/03/15 01:49:14;;;;;;;14.70;7.23;;;;;;;41.57;35.81;100655.16;6154996;23;20862;-78
2023/03/15 01:52:00;;;;;;;19.23;8.80;;;;;;;41.70;36.14;100658.69;6154718;23;20424;-78
2023/03/15 01:54:42;;;;;;;14.83;7.70;;;;;;;41.49;36.10;100645.13;6154954;23;20770;-77
2023/03/15 01:57:15;;;;;;;19.90;6.67;;;;;;;41.27;35.97;100640.84;6155292;23;20411;-78
2023/03/15 01:59:52;;;;;;;13.67;7.00;;;;;;;41.50;35.88;100626.91;6154885;23;20443;-77
2023/03/15 02:02:21;;;;;;;24.17;8.43;;;;;;;41.44;36.64;100625.53;6154888;23;20384;-78
2023/03/15 02:05:10;;;;;;;14.57;7.50;;;;;;;41.71;36.03;100627.59;6154827;23;20385;-77
2023/03/15 02:07:38;;;;;;;21.83;8.27;;;;;;;41.41;35.80;100624.25;6156609;23;20384;-79
2023/03/15 02:10:07;;;;;;;18.67;8.10;;;;;;;41.27;36.58;100634.63;6181188;23;20420;-79
2023/03/15 02:12:39;;;;;;;23.83;7.67;;;;;;;41.58;36.25;100634.16;6159614;23;20395;-78
2023/03/15 02:15:06;;;;;;;17.57;8.10;;;;;;;41.36;36.86;100634.53;6159584;23;20406;-78
2023/03/15 02:17:42;;;;;;;17.83;7.97;;;;;;;41.41;36.38;100637.06;6159076;23;20720;-78
2023/03/15 02:20:17;;;;;;;24.83;8.27;;;;;;;41.44;36.69;100639.91;6159280;23;20383;-78
2023/03/15 02:22:54;;;;;;;12.20;7.60;;;;;;;41.08;36.93;100630.47;6159633;23;20403;-79
2023/03/15 02:25:52;;;;;;;15.73;8.00;;;;;;;41.08;36.66;100648.72;6159489;23;20427;-77
2023/03/15 02:28:19;;;;;;;21.07;8.43;;;;;;;41.22;36.24;100640.25;6159530;23;20428;-78
2023/03/15 02:30:46;;;;;;;18.43;8.70;;;;;;;41.51;35.90;100645.59;6159713;23;20436;-79
2023/03/15 02:33:24;;;;;;;22.63;8.80;;;;;;;41.21;36.97;100634.03;6159533;23;20435;-78
2023/03/15 02:35:51;;;;;;;17.97;8.07;;;;;;;41.32;36.80;100640.69;6159207;23;20384;-79
2023/03/15 02:38:18;;;;;;;21.67;7.60;;;;;;;41.45;35.76;100655.13;6159460;23;20389;-77
2023/03/15 02:40:45;;;;;;;16.43;7.50;;;;;;;41.12;36.93;100644.19;6159247;23;20411;-78
2023/03/15 02:43:23;;;;;;;19.57;7.93;;;;;;;41.40;37.20;100643.66;6159480;23;20384;-78
2023/03/15 02:45:50;;;;;;;23.10;9.67;;;;;;;41.27;37.05;100635.41;6159274;23;20416;-79
2023/03/15 02:48:16;;;;;;;17.93;8.63;;;;;;;41.34;36.88;100640.34;6158954;23;20463;-77
2023/03/15 02:50:42;;;;;;;30.57;8.80;;;;;;;41.50;36.24;100633.13;6158790;23;20871;-80
2023/03/15 02:53:08;;;;;;;18.63;7.90;;;;;;;41.46;36.08;100629.47;6159407;23;20423;-77
2023/03/15 02:55:34;;;;;;;17.80;7.50;;;;;;;41.47;36.15;100622.91;6159400;23;20412;-78
2023/03/15 02:58:01;;;;;;;18.73;9.67;;;;;;;41.62;36.45;100629.66;6159143;23;20475;-78
2023/03/15 03:00:28;;;;;;;21.73;9.30;;;;;;;41.53;36.73;100634.38;6159135;23;20377;-78
2023/03/15 03:02:54;;;;;;;20.00;7.93;;;;;;;41.46;36.54;100636.84;6158992;23;20877;-79
2023/03/15 03:05:20;;;;;;;24.83;8.13;;;;;;;41.40;36.64;100632.75;6159151;23;20380;-79
2023/03/15 03:07:48;;;;;;;23.80;7.73;;;;;;;41.33;36.33;100644.19;6159077;23;20388;-78
2023/03/15 03:10:15;;;;;;;20.70;8.23;;;;;;;41.42;36.47;100646.81;6158806;23;20821;-77
2023/03/15 03:12:42;;;;;;;15.07;7.40;;;;;;;41.52;36.41;100638.25;6159119;23;20403;-78
2023/03/15 03:15:09;;;;;;;20.60;8.13;;;;;;;41.43;36.42;100641.03;6159111;23;20407;-78
2023/03/15 03:17:36;;;;;;;17.77;7.40;;;;;;;41.52;36.52;100640.97;6158950;23;20747;-78
2023/03/15 03:20:12;;;;;;;17.07;8.63;;;;;;;41.36;36.72;100635.34;6159220;23;20392;-79
2023/03/15 03:22:39;;;;;;;21.03;8.67;;;;;;;41.30;36.62;100647.53;6159169;23;20420;-79
2023/03/15 03:25:11;;;;;;;13.70;6.50;;;;;;;41.42;36.09;100649.53;6159098;23;20389;-79
2023/03/15 03:27:38;;;;;;;16.13;7.80;;;;;;;41.42;36.14;100633.22;6159007;23;20849;-78
2023/03/15 03:30:07;;;;;;;24.23;7.07;;;;;;;41.53;35.93;100639.81;6159180;23;20484;-78
2023/03/15 03:32:33;;;;;;;17.23;8.27;;;;;;;41.55;35.93;100632.91;6185688;23;20385;-77
2023/03/15 03:34:59;;;;;;;18.60;7.70;;;;;;;41.39;36.22;100647.50;6159652;23;20485;-76
2023/03/15 03:37:25;;;;;;;25.70;7.70;;;;;;;41.25;36.16;100636.84;6185381;23;20371;-77
2023/03/15 03:39:51;;;;;;;24.53;8.10;;;;;;;41.45;36.36;100627.09;6158918;23;20388;-77
2023/03/15 03:42:17;;;;;;;19.40;7.17;;;;;;;40.95;36.19;100623.38;6159173;23;20732;-78
2023/03/15 03:44:43;;;;;;;18.93;7.13;;;;;;;41.03;36.96;100638.81;6158497;23;20381;-78
2023/03/15 03:47:09;;;;;;;19.63;8.33;;;;;;;41.20;36.64;100632.44;6158879;23;20442;-76
2023/03/15 03:49:35;;;;;;;20.77;8.13;;;;;;;41.04;36.77;100648.56;6158340;23;20550;-77
2023/03/15 03:52:01;;;;;;;17.63;7.77;;;;;;;41.23;36.21;100645.34;6158817;23;20908;-78
2023/03/15 03:54:27;;;;;;;22.33;9.00;;;;;;;41.39;35.87;100642.84;6158890;23;20153;-77
2023/03/15 03:56:53;;;;;;;25.00;8.70;;;;;;;41.56;35.80;100652.78;6158767;23;20493;-77
2023/03/15 03:59:19;;;;;;;17.97;9.67;;;;;;;41.39;36.29;100653.75;6158787;23;20427;-79
2023/03/15 04:01:47;;;;;;;16.73;9.40;;;;;;;41.25;36.67;100662.16;6158712;23;20211;-78
2023/03/15 04:04:13;;;;;;;14.70;7.00;;;;;;;41.35;36.40;100658.25;6158622;23;20192;-78
2023/03/15 04:06:44;;;;;;;18.67;8.97;;;;;;;41.41;36.81;100659.63;6158837;23;20384;-77
2023/03/15 04:09:15;;;;;;;16.13;8.33;;;;;;;41.63;36.71;100663.13;6158131;23;20440;-79
2023/03/15 04:11:42;;;;;;;25.50;8.30;;;;;;;41.33;36.56;100671.41;6158522;23;20455;-80
2023/03/15 04:14:11;;;;;;;15.87;7.60;;;;;;;41.36;36.51;100662.56;6158407;23;20377;-77
2023/03/15 04:16:38;;;;;;;15.00;8.10;;;;;;;41.21;36.50;100661.25;6185666;23;20357;-79
2023/03/15 04:19:05;;;;;;;23.50;8.83;;;;;;;41.31;36.79;100658.13;6158539;23;20447;-79
2023/03/15 04:21:31;;;;;;;26.80;8.83;;;;;;;41.40;36.71;100660.78;6158073;23;20397;-80
2023/03/15 04:23:58;;;;;;;19.70;9.43;;;;;;;41.05;37.24;100663.75;6184889;23;20459;-83
2023/03/15 04:26:25;;;;;;;24.97;8.30;;;;;;;41.36;36.93;100662.56;6158388;23;20458;-83
2023/03/15 04:28:55;;;;;;;21.97;8.83;;;;;;;41.36;36.50;100667.22;6158433;23;20408;-80
2023/03/15 04:31:25;;;;;;;12.60;5.90;;;;;;;41.29;36.70;100659.56;6158397;23;20423;-79
2023/03/15 04:33:55;;;;;;;18.30;7.47;;;;;;;41.45;36.27;100668.72;6158434;23;20408;-79
2023/03/15 04:36:22;;;;;;;23.87;11.40;;;;;;;41.36;36.49;100667.22;6158766;23;20470;-79
2023/03/15 04:38:49;;;;;;;15.63;7.13;;;;;;;41.33;36.27;100663.25;6158276;23;20388;-78
2023/03/15 04:41:17;;;;;;;19.73;8.13;;;;;;;41.36;36.13;100657.13;6159118;23;20849;-78
2023/03/15 04:43:43;;;;;;;22.20;8.20;;;;;;;41.40;36.73;100668.94;6158091;23;20494;-78
2023/03/15 04:46:10;;;;;;;34.87;9.40;;;;;;;41.55;36.05;100671.00;6158388;23;20394;-78
2023/03/15 04:48:36;;;;;;;18.47;7.30;;;;;;;41.55;35.97;100664.78;6158301;23;20384;-78
2023/03/15 04:51:02;;;;;;;15.73;7.73;;;;;;;41.37;36.35;100672.31;6184833;23;20443;-77
2023/03/15 04:53:29;;;;;;;24.07;10.90;;;;;;;41.27;36.15;100672.72;6184265;23;20853;-78
2023/03/15 04:55:55;;;;;;;24.33;7.83;;;;;;;41.24;36.29;100678.81;6157997;23;20408;-77
2023/03/15 04:58:21;;;;;;;16.40;7.50;;;;;;;41.34;36.13;100689.34;6158249;23;20415;-77
2023/03/15 05:00:48;;;;;;;14.87;6.53;;;;;;;41.36;35.98;100691.72;6158373;23;20505;-78
2023/03/15 05:03:14;;;;;;;16.40;7.43;;;;;;;41.33;35.86;100690.47;6157882;23;20395;-78
2023/03/15 05:05:39;;;;;;;23.30;7.60;;;;;;;41.18;35.97;100691.03;6158647;23;20389;-78
2023/03/15 05:08:05;;;;;;;23.03;8.33;;;;;;;41.29;35.40;100693.00;6157765;23;20392;-77
2023/03/15 05:10:32;;;;;;;16.43;8.73;;;;;;;41.37;35.66;100696.03;6157495;23;20215;-77
2023/03/15 05:12:58;;;;;;;28.53;10.83;;;;;;;41.48;35.19;100689.03;6158088;23;20176;-78
2023/03/15 05:15:24;;;;;;;19.03;8.80;;;;;;;41.06;35.09;100695.28;6157154;23;20384;-78
2023/03/15 05:17:53;;;;;;;19.70;8.23;;;;;;;41.14;35.80;100685.47;6157886;23;20620;-78
2023/03/15 05:20:19;;;;;;;15.67;8.00;;;;;;;41.16;35.71;100685.94;6157933;23;20380;-78
2023/03/15 05:22:45;;;;;;;16.40;7.80;;;;;;;41.42;34.88;100693.88;6157293;23;20403;-78
2023/03/15 05:25:12;;;;;;;26.77;8.17;;;;;;;41.27;35.40;100691.78;6157760;23;20388;-77
2023/03/15 05:27:38;;;;;;;19.80;7.20;;;;;;;41.16;35.04;100687.84;6156792;23;20161;-78
2023/03/15 05:30:06;;;;;;;20.77;7.97;;;;;;;41.23;35.95;100688.13;6157499;23;20868;-77
2023/03/15 05:32:38;;;;;;;19.50;6.83;;;;;;;41.54;35.21;100704.81;6156697;23;20928;-78
2023/03/15 05:35:06;;;;;;;16.80;7.73;;;;;;;41.49;35.19;100712.41;6157868;23;20400;-77
2023/03/15 05:37:34;;;;;;;24.70;10.20;;;;;;;41.32;35.67;100718.78;6158022;23;20467;-77
2023/03/15 05:40:00;;;;;;;19.40;7.13;;;;;;;41.39;34.89;100701.94;6184725;23;20349;-77
2023/03/15 05:42:26;;;;;;;21.03;7.63;;;;;;;41.61;34.79;100713.25;6158048;23;20931;-77
2023/03/15 05:44:53;;;;;;;25.67;9.67;;;;;;;41.62;34.94;100714.06;6158218;23;20384;-79
2023/03/15 05:47:19;;;;;;;18.80;8.20;;;;;;;41.65;35.21;100712.59;6157734;23;20380;-80
2023/03/15 05:49:45;;;;;;;12.73;8.67;;;;;;;41.61;35.07;100712.44;6158067;23;20791;-76
2023/03/15 05:52:11;;;;;;;18.77;7.87;;;;;;;41.73;35.25;100717.94;6157786;23;20447;-78
2023/03/15 05:54:37;;;;;;;19.20;7.83;;;;;;;41.80;34.90;100718.22;6184836;23;20357;-78
2023/03/15 05:57:04;;;;;;;12.30;7.63;;;;;;;41.70;34.49;100726.00;6157597;23;20550;-78
2023/03/15 05:59:30;;;;;;;25.07;10.50;;;;;;;41.75;34.58;100720.38;6157431;23;20380;-78
2023/03/15 06:01:56;;;;;;;20.67;9.77;;;;;;;41.75;34.41;100736.72;6156857;23;20404;-78
2023/03/15 06:04:23;;;;;;;24.53;9.50;;;;;;;41.66;34.63;100730.50;6157819;23;20932;-78
2023/03/15 06:06:50;;;;;;;22.27;7.77;;;;;;;41.68;35.15;100747.31;6158972;23;20391;-78
2023/03/15 06:09:16;;;;;;;19.80;6.90;;;;;;;41.66;34.71;100755.81;6158756;23;20444;-79
2023/03/15 06:11:42;;;;;;;31.83;9.30;;;;;;;41.61;35.09;100753.31;6159623;23;20506;-80
2023/03/15 06:14:08;;;;;;;21.40;8.50;;;;;;;41.47;35.94;100753.59;6158286;23;20395;-78
2023/03/15 06:16:34;;;;;;;18.90;7.73;;;;;;;41.59;35.46;100758.28;6158899;23;20159;-77
2023/03/15 06:19:00;;;;;;;15.90;7.87;;;;;;;41.47;35.25;100759.03;6158882;23;20157;-78
2023/03/15 06:21:26;;;;;;;23.90;7.73;;;;;;;41.63;35.07;100763.88;6158609;23;20388;-79
2023/03/15 06:23:52;;;;;;;19.53;9.20;;;;;;;41.58;35.44;100770.31;6186342;23;20610;-80
2023/03/15 06:26:21;;;;;;;21.00;8.57;;;;;;;41.52;35.18;100768.94;6156641;23;20156;-80
2023/03/15 06:28:47;;;;;;;17.00;7.43;;;;;;;41.67;34.78;100764.78;6159500;23;20876;-80
2023/03/15 06:31:14;;;;;;;20.00;7.90;;;;;;;41.67;34.94;100772.94;6159279;23;20435;-79
2023/03/15 06:33:41;;;;;;;24.40;9.07;;;;;;;41.57;34.47;100771.47;6159484;23;20805;-80
2023/03/15 06:36:08;;;;;;;18.90;8.90;;;;;;;41.71;34.39;100776.63;6161090;23;20384;-81
2023/03/15 06:38:34;;;;;;;27.23;9.43;;;;;;;41.76;34.93;100782.69;6157774;23;20415;-81
2023/03/15 06:41:00;;;;;;;19.40;8.33;;;;;;;41.81;34.54;100782.47;6158650;23;20736;-82
2023/03/15 06:43:27;;;;;;;21.30;8.20;;;;;;;41.88;34.81;100778.41;6158041;23;20416;-82
2023/03/15 06:45:54;;;;;;;17.33;8.97;;;;;;;41.90;35.06;100782.38;6159451;23;20454;-82
2023/03/15 06:48:21;;;;;;;27.60;10.97;;;;;;;41.75;35.24;100791.19;6158356;23;20395;-82
2023/03/15 06:50:47;;;;;;;23.00;9.67;;;;;;;41.64;34.69;100782.59;6158152;23;20443;-81
2023/03/15 06:53:14;;;;;;;26.90;9.20;;;;;;;41.80;34.84;100780.06;6158569;23;20737;-82
2023/03/15 06:55:39;;;;;;;20.83;8.57;;;;;;;41.80;35.12;100782.78;6157655;23;20728;-82
2023/03/15 06:58:05;;;;;;;16.53;9.60;;;;;;;41.84;35.15;100784.50;6156456;23;20408;-82
2023/03/15 07:00:31;;;;;;;19.70;9.20;;;;;;;41.77;34.89;100778.81;6156991;23;20180;-82
2023/03/15 07:02:57;;;;;;;23.03;8.80;;;;;;;41.79;34.33;100776.56;6157046;23;20187;-82
2023/03/15 07:05:23;;;;;;;25.00;7.73;;;;;;;41.83;34.67;100784.84;6157747;23;20227;-83
2023/03/15 07:07:49;;;;;;;17.53;7.97;;;;;;;41.70;34.53;100780.47;6156950;23;20470;-82
2023/03/15 07:10:15;;;;;;;19.40;8.00;;;;;;;41.68;35.37;100786.25;6156452;23;20635;-81
2023/03/15 07:12:41;;;;;;;21.03;8.70;;;;;;;41.86;34.56;100771.34;6159177;23;20167;-82
2023/03/15 07:15:08;;;;;;;24.33;8.63;;;;;;;41.85;34.56;100779.88;6159578;23;20459;-81
2023/03/15 07:17:34;;;;;;;20.60;8.73;;;;;;;42.06;34.73;100779.81;6159137;23;20893;-81
2023/03/15 07:20:00;;;;;;;29.43;8.73;;;;;;;41.91;35.54;100791.34;6158892;23;20415;-82
2023/03/15 07:22:25;;;;;;;19.80;8.90;;;;;;;41.93;35.73;100786.34;6159308;23;20849;-81
2023/03/15 07:24:51;;;;;;;17.07;8.30;;;;;;;41.89;35.97;100780.78;6159095;23;20388;-82
2023/03/15 07:27:17;;;;;;;23.20;10.20;;;;;;;41.99;35.32;100795.91;6185765;23;20365;-81
2023/03/15 07:29:43;;;;;;;21.10;9.07;;;;;;;41.80;35.71;100799.13;6158805;23;20737;-81
2023/03/15 07:32:09;;;;;;;23.00;9.20;;;;;;;41.75;35.95;100805.59;6158817;23;20892;-82
2023/03/15 07:34:35;;;;;;;19.90;8.87;;;;;;;41.94;35.57;100815.22;6158880;23;20156;-82
2023/03/15 07:37:02;;;;;;;20.93;8.50;;;;;;;41.99;36.13;100818.53;6158802;23;20415;-82
2023/03/15 07:39:31;;;;;;;22.80;9.47;;;;;;;42.21;35.77;100813.84;6159066;23;20384;-82
2023/03/15 07:41:58;;;;;;;36.90;10.83;;;;;;;42.36;35.41;100821.38;6158709;23;20377;-82
2023/03/15 07:44:24;;;;;;;19.33;8.80;;;;;;;42.33;34.87;100817.38;6185448;23;20400;-82
2023/03/15 07:46:50;;;;;;;29.37;11.67;;;;;;;41.97;34.16;100819.97;6158392;23;20724;-79
2023/03/15 07:49:16;;;;;;;21.30;10.40;;;;;;;42.00;33.65;100822.06;6158909;23;20404;-79
2023/03/15 07:51:42;;;;;;;16.80;8.93;;;;;;;42.09;34.00;100830.91;6158906;23;20881;-82
2023/03/15 07:54:09;;;;;;;15.70;7.67;;;;;;;42.08;34.45;100827.41;6158976;23;20396;-82
2023/03/15 07:56:35;;;;;;;13.83;7.17;;;;;;;42.12;34.40;100830.25;6158884;23;20404;-82
2023/03/15 07:59:01;;;;;;;18.50;8.07;;;;;;;42.30;33.96;100831.72;6158791;23;20472;-81
2023/03/15 08:01:27;;;;;;;19.80;6.97;;;;;;;42.36;33.63;100835.81;6158388;23;20372;-81
2023/03/15 08:03:53;;;;;;;23.63;11.03;;;;;;;42.17;34.49;100842.88;6185489;23;20204;-81
2023/03/15 08:06:19;;;;;;;17.37;6.80;;;;;;;42.08;34.09;100842.97;6158470;23;20392;-80
2023/03/15 08:08:45;;;;;;;16.83;8.23;;;;;;;42.15;34.22;100848.66;6154300;23;20436;-81
2023/03/15 08:11:12;;;;;;;17.10;7.37;;;;;;;42.23;34.52;100847.78;6153423;23;20436;-80
2023/03/15 08:13:38;;;;;;;18.40;9.23;;;;;;;42.34;34.25;100848.97;6153700;23;20563;-79
2023/03/15 08:16:04;;;;;;;22.60;8.97;;;;;;;42.36;34.30;100859.56;6153545;23;20409;-78
2023/03/15 08:18:30;;;;;;;24.17;7.90;;;;;;;42.44;34.03;100872.28;6153129;23;20471;-80
2023/03/15 08:20:57;;;;;;;13.57;8.37;;;;;;;42.31;33.71;100874.19;6153503;23;20432;-80
2023/03/15 08:23:23;;;;;;;21.70;8.53;;;;;;;42.21;34.55;100863.69;6151555;23;20447;-82
2023/03/15 08:25:50;;;;;;;14.60;7.73;;;;;;;42.36;34.36;100875.91;6153000;23;20511;-80
2023/03/15 08:28:16;;;;;;;22.60;7.80;;;;;;;42.11;34.89;100869.53;6153600;23;20381;-81
2023/03/15 08:30:42;;;;;;;20.17;8.80;;;;;;;42.01;35.21;100876.22;6153048;23;20433;-82
2023/03/15 08:33:08;;;;;;;16.73;7.97;;;;;;;42.14;34.84;100877.84;6153521;23;20427;-81
2023/03/15 08:35:35;;;;;;;14.97;9.87;;;;;;;42.25;34.34;100866.56;6153179;23;20436;-84
2023/03/15 08:38:01;;;;;;;16.60;8.50;;;;;;;42.24;34.76;100889.50;6152003;23;20940;-82
2023/03/15 08:40:28;;;;;;;19.83;8.30;;;;;;;42.06;34.54;100889.63;6151123;23;20392;-79
2023/03/15 08:42:55;;;;;;;23.70;10.63;;;;;;;42.11;34.96;100896.78;6151366;23;20942;-79
2023/03/15 08:45:25;;;;;;;17.03;7.10;;;;;;;42.20;35.19;100903.00;6150787;23;20493;-82
2023/03/15 08:47:58;;;;;;;18.70;8.17;;;;;;;42.29;34.78;100895.50;6151130;23;20388;-81
2023/03/15 08:50:27;;;;;;;13.57;7.13;;;;;;;42.30;33.77;100905.31;6152115;23;20874;-88
2023/03/15 08:52:53;;;;;;;22.07;9.73;;;;;;;42.40;33.96;100902.16;6152405;23;20509;-85
2023/03/15 08:55:19;;;;;;;21.43;7.73;;;;;;;42.37;34.42;100902.03;6153069;23;20413;-82
2023/03/15 08:57:45;;;;;;;12.23;6.47;;;;;;;42.31;34.02;100900.66;6152691;23;20412;-82
2023/03/15 09:00:22;;;;;;;16.90;8.30;;;;;;;42.24;34.59;100903.94;6152164;23;20462;-81
2023/03/15 09:02:50;;;;;;;19.30;7.53;;;;;;;42.30;34.69;100905.31;6151840;23;20391;-82
2023/03/15 09:05:17;;;;;;;15.43;6.03;;;;;;;42.18;34.53;100909.94;6151247;23;20810;-85
2023/03/15 09:07:44;;;;;;;21.60;7.20;;;;;;;42.20;35.07;100911.19;6151830;23;20385;-85
2023/03/15 09:10:15;;;;;;;20.57;9.13;;;;;;;42.18;35.16;100907.19;6151950;23;20487;-80
2023/03/15 09:12:43;;;;;;;16.57;7.87;;;;;;;42.29;34.84;100908.34;6151697;23;20937;-81
2023/03/15 09:15:10;;;;;;;15.47;7.60;;;;;;;42.42;34.51;100906.47;6151916;23;20847;-81
2023/03/15 09:17:37;;;;;;;18.13;8.13;;;;;;;42.29;34.67;100892.78;6151720;23;20452;-81
2023/03/15 09:20:11;;;;;;;15.67;8.40;;;;;;;42.56;34.17;100899.59;6152357;23;20392;-81
2023/03/15 09:22:37;;;;;;;18.00;9.07;;;;;;;42.58;34.47;100891.88;6152188;23;20377;-83
2023/03/15 09:25:03;;;;;;;10.70;6.97;;;;;;;42.60;34.23;100892.34;6152207;23;20381;-81
2023/03/15 09:27:30;;;;;;;20.67;12.20;;;;;;;42.65;34.16;100888.59;6151402;23;20590;-81
2023/03/15 09:29:56;;;;;;;17.97;8.63;;;;;;;42.58;34.50;100882.91;6152446;23;20381;-81
2023/03/15 09:32:22;;;;;;;21.93;9.60;;;;;;;42.71;34.55;100883.72;6153099;23;20432;-81
2023/03/15 09:34:48;;;;;;;22.73;7.33;;;;;;;42.79;34.21;100883.63;6152858;23;20794;-83
2023/03/15 09:37:14;;;;;;;15.83;7.13;;;;;;;42.68;33.82;100887.94;6153068;23;20240;-82
2023/03/15 09:39:40;;;;;;;16.07;7.00;;;;;;;42.60;34.29;100891.53;6153149;23;20177;-82
2023/03/15 09:42:17;;;;;;;23.53;7.80;;;;;;;42.39;34.92;100888.84;6153869;23;20850;-84
2023/03/15 09:44:49;;;;;;;18.40;7.07;;;;;;;42.44;34.36;100896.03;6154489;23;20723;-85
2023/03/15 09:47:32;;;;;;;19.37;8.27;;;;;;;42.44;34.50;100899.56;6157300;23;20431;-86
2023/03/15 09:50:24;;;;;;;16.97;7.20;;;;;;;42.52;34.48;100897.84;6154382;23;20477;-88
2023/03/15 09:53:00;;;;;;;13.43;7.27;;;;;;;42.61;34.42;100896.69;6157764;23;20394;-86
2023/03/15 09:55:27;;;;;;;14.60;6.50;;;;;;;42.61;34.53;100901.34;6155934;23;20397;-87
2023/03/15 09:58:00;;;;;;;20.57;7.80;;;;;;;42.73;34.60;100895.91;6155474;23;20726;-87
2023/03/15 10:00:41;;;;;;;12.33;8.00;;;;;;;42.67;34.61;100901.91;6151794;23;20409;-86
2023/03/15 10:03:18;;;;;;;18.40;10.83;;;;;;;42.78;34.69;100901.09;6153752;23;20447;-87
2023/03/15 10:05:48;;;;;;;16.97;9.50;;;;;;;42.63;34.79;100904.50;6153603;23;20384;-86
2023/03/15 10:08:18;;;;;;;18.77;6.90;;;;;;;42.64;34.93;100906.09;6154741;23;20385;-85
2023/03/15 10:11:10;;;;;;;25.40;8.77;;;;;;;42.63;35.07;100905.31;6158267;23;20522;-88
2023/03/15 10:14:07;;;;;;;20.57;8.30;;;;;;;42.62;34.84;100917.34;6158393;23;21117;-90
2023/03/15 10:16:39;;;;;;;28.57;11.17;;;;;;;42.48;35.20;100910.56;6158852;23;20446;-88
2023/03/15 10:19:12;;;;;;;14.60;6.77;;;;;;;42.61;34.90;100920.44;6160190;23;20388;-87
2023/03/15 10:21:54;;;;;;;13.60;8.70;;;;;;;42.61;34.83;100931.34;6160362;23;20732;-87
2023/03/15 10:24:45;;;;;;;20.07;8.97;;;;;;;42.63;34.88;100918.16;6160422;23;20860;-88
2023/03/15 10:27:21;;;;;;;14.63;6.80;;;;;;;42.62;34.46;100911.09;6160337;23;20384;-84
2023/03/15 10:29:50;;;;;;;16.23;7.40;;;;;;;42.58;34.21;100923.81;6159918;23;20388;-86
2023/03/15 10:32:20;;;;;;;14.10;7.10;;;;;;;42.51;33.82;100918.88;6160124;23;20430;-86
2023/03/15 10:34:51;;;;;;;13.93;7.53;;;;;;;42.63;33.78;100921.66;6160055;23;20384;-85
2023/03/15 10:37:18;;;;;;;15.70;8.00;;;;;;;42.73;33.25;100912.28;6160173;23;20388;-85
2023/03/15 10:39:52;;;;;;;19.90;10.80;;;;;;;42.70;33.78;100907.47;6160258;23;20511;-85
2023/03/15 10:42:31;;;;;;;20.40;8.20;;;;;;;42.69;32.93;100910.53;6160205;23;20380;-85
2023/03/15 10:45:10;;;;;;;20.73;7.50;;;;;;;42.69;33.26;100908.63;6159841;23;20388;-87
2023/03/15 10:47:42;;;;;;;15.57;6.67;;;;;;;42.57;33.08;100900.38;6159370;23;20944;-82
2023/03/15 10:50:09;;;;;;;14.83;7.67;;;;;;;42.65;33.44;100900.28;6186378;23;20360;-86
2023/03/15 10:52:40;;;;;;;25.93;8.63;;;;;;;42.53;33.61;100902.97;6159051;23;20917;-86
2023/03/15 10:55:13;;;;;;;20.40;7.57;;;;;;;42.77;33.74;100898.72;6159473;23;20404;-83
2023/03/15 10:57:50;;;;;;;19.83;7.87;;;;;;;42.66;33.84;100884.72;6159064;23;20384;-83
2023/03/15 11:00:31;;;;;;;23.50;8.50;;;;;;;42.79;33.47;100883.63;6158494;23;20387;-85
2023/03/15 11:03:16;;;;;;;19.37;8.00;;;;;;;42.75;33.42;100887.38;6159387;23;20384;-86
2023/03/15 11:05:45;;;;;;;17.83;6.40;;;;;;;42.98;33.76;100888.56;6159197;23;20381;-90
2023/03/15 11:08:14;;;;;;;18.17;7.50;;;;;;;42.85;33.43;100873.28;6159099;23;20384;-88
2023/03/15 11:10:41;;;;;;;27.43;10.40;;;;;;;42.98;33.69;100853.06;6159352;23;20416;-85
2023/03/15 11:13:25;;;;;;;26.77;8.30;;;;;;;42.83;33.94;100859.97;6159965;23;20392;-87
2023/03/15 11:16:02;;;;;;;15.47;8.90;;;;;;;42.92;33.84;100855.22;6158025;23;20385;-86
2023/03/15 11:18:54;;;;;;;16.63;6.73;;;;;;;43.09;33.53;100872.50;6156980;23;20845;-85
2023/03/15 11:21:32;;;;;;;16.50;8.80;;;;;;;42.88;34.26;100856.22;6142867;23;20385;-85
2023/03/15 11:24:02;;;;;;;15.87;7.60;;;;;;;42.79;34.30;100852.81;6179789;23;20380;-84